Observation data for Olton on 05/16/2018      Previous  Date  Next       Current Mesonet Observations  Soil Data  Daily Summary Page  Observations in Plain Language
KONS 160500Z 15010KT 14/10 A3003 RMK A01 T01440098  RH  076%=      5-min Rain = 0
KONS 160505Z 15010KT 15/10 A3003 RMK A01 T01470100  RH  075%=      5-min Rain = 0
KONS 160510Z 15008KT 15/10 A3003 RMK A01 T01500100  RH  073%=      5-min Rain = 0
KONS 160515Z 15008KT 15/10 A3003 RMK A01 T01500101  RH  074%=      5-min Rain = 0
KONS 160520Z 16008KT 15/10 A3003 RMK A01 T01510103  RH  074%=      5-min Rain = 0
KONS 160525Z 16007KT 15/10 A3002 RMK A01 T01490103  RH  075%=      5-min Rain = 0
KONS 160530Z 16008KT 15/10 A3002 RMK A01 T01470103  RH  076%=      5-min Rain = 0
KONS 160535Z 16008KT 15/11 A3003 RMK A01 T01470106  RH  078%=      5-min Rain = 0
KONS 160540Z 16006KT 15/11 A3002 RMK A01 T01470106  RH  078%=      5-min Rain = 0
KONS 160545Z 15006KT 15/11 A3003 RMK A01 T01480108  RH  078%=      5-min Rain = 0
KONS 160550Z 15007KT 15/11 A3002 RMK A01 T01470108  RH  079%=      5-min Rain = 0
KONS 160555Z 15009KT 15/11 A3002 RMK A01 T01500112  RH  079%=      5-min Rain = 0
KONS 160600Z 15011KT 15/11 A3002 RMK A01 T01540114  RH  078%=      5-min Rain = 0
KONS 160605Z 15012KT 16/12 A3002 RMK A01 T01580115  RH  077%=      5-min Rain = 0
KONS 160610Z 15011KT 16/12 A3002 RMK A01 T01590116  RH  077%=      5-min Rain = 0
KONS 160615Z 15010KT 16/12 A3001 RMK A01 T01580116  RH  077%=      5-min Rain = 0
KONS 160620Z 15010KT 16/12 A3001 RMK A01 T01570116  RH  078%=      5-min Rain = 0
KONS 160625Z 15010KT 16/12 A3001 RMK A01 T01570118  RH  079%=      5-min Rain = 0
KONS 160630Z 15010KT 16/12 A3001 RMK A01 T01580120  RH  080%=      5-min Rain = 0
KONS 160635Z 14010KT 16/12 A3001 RMK A01 T01590122  RH  080%=      5-min Rain = 0
KONS 160640Z 14008KT 16/12 A3001 RMK A01 T01600124  RH  080%=      5-min Rain = 0
KONS 160645Z 08006KT 16/12 A3002 RMK A01 T01600124  RH  081%=      5-min Rain = 0
KONS 160650Z 02010KT 16/12 A3003 RMK A01 T01570122  RH  081%=      5-min Rain = 0
KONS 160655Z 04011KT 16/12 A3004 RMK A01 T01560123  RH  082%=      5-min Rain = 0
KONS 160700Z 05011KT 16/13 A3004 RMK A01 T01590125  RH  082%=      5-min Rain = 0
KONS 160705Z 08010KT 16/13 A3003 RMK A01 T01630128  RH  082%=      5-min Rain = 0
KONS 160710Z 08009KT 16/13 A3003 RMK A01 T01630128  RH  081%=      5-min Rain = 0
KONS 160715Z 05009KT 16/13 A3003 RMK A01 T01620127  RH  081%=      5-min Rain = 0
KONS 160720Z 04009KT 16/12 A3003 RMK A01 T01570122  RH  081%=      5-min Rain = 0
KONS 160725Z 05008KT 15/12 A3003 RMK A01 T01540122  RH  083%=      5-min Rain = 0
KONS 160730Z 07009KT 16/12 A3003 RMK A01 T01550124  RH  084%=      5-min Rain = 0
KONS 160735Z 06009KT 16/13 A3003 RMK A01 T01570127  RH  084%=      5-min Rain = 0
KONS 160740Z 04008KT 16/13 A3004 RMK A01 T01570126  RH  083%=      5-min Rain = 0
KONS 160745Z 03007KT 15/12 A3004 RMK A01 T01530123  RH  083%=      5-min Rain = 0
KONS 160750Z 05007KT 15/12 A3004 RMK A01 T01510122  RH  085%=      5-min Rain = 0
KONS 160755Z 06007KT 15/13 A3003 RMK A01 T01520125  RH  085%=      5-min Rain = 0
KONS 160800Z 05007KT 15/13 A3003 RMK A01 T01520125  RH  085%=      5-min Rain = 0
KONS 160805Z 03009KT 15/13 A3003 RMK A01 T01530126  RH  086%=      5-min Rain = 0
KONS 160810Z 04010KT 15/13 A3004 RMK A01 T01520126  RH  086%=      5-min Rain = 0
KONS 160815Z 05010KT 15/13 A3004 RMK A01 T01520127  RH  086%=      5-min Rain = 0
KONS 160820Z 07008KT 16/13 A3004 RMK A01 T01550128  RH  086%=      5-min Rain = 0
KONS 160825Z 07008KT 16/13 A3004 RMK A01 T01550127  RH  085%=      5-min Rain = 0
KONS 160830Z 05007KT 15/13 A3004 RMK A01 T01540125  RH  085%=      5-min Rain = 0
KONS 160835Z 05008KT 15/13 A3004 RMK A01 T01530125  RH  085%=      5-min Rain = 0
KONS 160840Z 06008KT 15/13 A3004 RMK A01 T01530125  RH  085%=      5-min Rain = 0
KONS 160845Z 07008KT 15/13 A3003 RMK A01 T01530125  RH  085%=      5-min Rain = 0
KONS 160850Z 07008KT 15/12 A3003 RMK A01 T01540124  RH  084%=      5-min Rain = 0
KONS 160855Z 07008KT 15/12 A3003 RMK A01 T01540124  RH  084%=      5-min Rain = 0
KONS 160900Z 07007KT 16/12 A3003 RMK A01 T01550124  RH  083%=      5-min Rain = 0
KONS 160905Z 08008KT 16/12 A3003 RMK A01 T01550124  RH  083%=      5-min Rain = 0
KONS 160910Z 09008KT 16/12 A3003 RMK A01 T01550123  RH  083%=      5-min Rain = 0
KONS 160915Z 09008KT 16/12 A3003 RMK A01 T01550122  RH  082%=      5-min Rain = 0
KONS 160920Z 08008KT 16/12 A3003 RMK A01 T01550121  RH  082%=      5-min Rain = 0
KONS 160925Z 09008KT 16/12 A3003 RMK A01 T01550121  RH  081%=      5-min Rain = 0
KONS 160930Z 09009KT 16/12 A3003 RMK A01 T01580121  RH  080%=      5-min Rain = 0
KONS 160935Z 09008KT 16/12 A3003 RMK A01 T01600120  RH  079%=      5-min Rain = 0
KONS 160940Z 08008KT 16/12 A3003 RMK A01 T01610120  RH  078%=      5-min Rain = 0
KONS 160945Z 08008KT 16/12 A3003 RMK A01 T01620121  RH  078%=      5-min Rain = 0
KONS 160950Z 09009KT 16/12 A3002 RMK A01 T01640120  RH  077%=      5-min Rain = 0
KONS 160955Z 10009KT 17/12 A3002 RMK A01 T01660120  RH  076%=      5-min Rain = 0
KONS 161000Z 10008KT 17/12 A3002 RMK A01 T01660119  RH  075%=      5-min Rain = 0
KONS 161005Z 09009KT 17/12 A3002 RMK A01 T01660119  RH  075%=      5-min Rain = 0
KONS 161010Z 09008KT 17/12 A3002 RMK A01 T01660120  RH  075%=      5-min Rain = 0
KONS 161015Z 09008KT 17/12 A3002 RMK A01 T01670120  RH  075%=      5-min Rain = 0
KONS 161020Z 10008KT 17/12 A3002 RMK A01 T01670120  RH  075%=      5-min Rain = 0
KONS 161025Z 09007KT 17/12 A3002 RMK A01 T01670120  RH  075%=      5-min Rain = 0
KONS 161030Z 10008KT 17/12 A3002 RMK A01 T01670120  RH  075%=      5-min Rain = 0
KONS 161035Z 10008KT 17/12 A3002 RMK A01 T01650119  RH  076%=      5-min Rain = 0
KONS 161040Z 12007KT 16/12 A3002 RMK A01 T01640119  RH  076%=      5-min Rain = 0
KONS 161045Z 13007KT 16/12 A3002 RMK A01 T01630120  RH  077%=      5-min Rain = 0
KONS 161050Z 13007KT 16/12 A3002 RMK A01 T01610120  RH  078%=      5-min Rain = 0
KONS 161055Z 12005KT 16/12 A3002 RMK A01 T01600120  RH  078%=      5-min Rain = 0
KONS 161100Z 10005KT 16/12 A3003 RMK A01 T01600121  RH  079%=      5-min Rain = 0
KONS 161105Z 09006KT 16/12 A3003 RMK A01 T01610122  RH  079%=      5-min Rain = 0
KONS 161110Z 09006KT 16/12 A3004 RMK A01 T01620123  RH  079%=      5-min Rain = 0
KONS 161115Z 09005KT 16/12 A3003 RMK A01 T01630123  RH  079%=      5-min Rain = 0
KONS 161120Z 10005KT 16/12 A3003 RMK A01 T01640123  RH  078%=      5-min Rain = 0
KONS 161125Z 10005KT 17/12 A3004 RMK A01 T01650124  RH  078%=      5-min Rain = 0
KONS 161130Z 09006KT 17/12 A3004 RMK A01 T01650124  RH  078%=      5-min Rain = 0
KONS 161135Z 08005KT 17/13 A3005 RMK A01 T01650125  RH  079%=      5-min Rain = 0
KONS 161140Z 08006KT 17/13 A3005 RMK A01 T01650126  RH  079%=      5-min Rain = 0
KONS 161145Z 07005KT 17/13 A3005 RMK A01 T01660126  RH  079%=      5-min Rain = 0
KONS 161150Z 06006KT 17/13 A3006 RMK A01 T01660127  RH  079%=      5-min Rain = 0
KONS 161155Z 05007KT 17/13 A3007 RMK A01 T01670128  RH  079%=      5-min Rain = 0
KONS 161200Z 05009KT 17/13 A3007 RMK A01 T01680128  RH  079%=      5-min Rain = 0
KONS 161205Z 05010KT 17/13 A3008 RMK A01 T01690129  RH  079%=      5-min Rain = 0
KONS 161210Z 07010KT 17/13 A3008 RMK A01 T01700130  RH  078%=      5-min Rain = 0
KONS 161215Z 07012KT 17/13 A3008 RMK A01 T01710130  RH  078%=      5-min Rain = 0
KONS 161220Z 06011KT 17/13 A3009 RMK A01 T01710130  RH  078%=      5-min Rain = 0
KONS 161225Z 07011KT 17/13 A3009 RMK A01 T01700131  RH  079%=      5-min Rain = 0
KONS 161230Z 07010KT 17/13 A3009 RMK A01 T01710132  RH  079%=      5-min Rain = 0
KONS 161235Z 08011G16KT 17/13 A3009 RMK A01 T01720132  RH  079%=      5-min Rain = 0
KONS 161240Z 08012KT 17/13 A3009 RMK A01 T01730133  RH  079%=      5-min Rain = 0
KONS 161245Z 09013KT 17/13 A3009 RMK A01 T01740134  RH  079%=      5-min Rain = 0
KONS 161250Z 10011KT 18/13 A3009 RMK A01 T01760134  RH  078%=      5-min Rain = 0
KONS 161255Z 10013KT 18/13 A3009 RMK A01 T01790134  RH  077%=      5-min Rain = 0
KONS 161300Z 11013KT 18/13 A3009 RMK A01 T01800133  RH  075%=      5-min Rain = 0
KONS 161305Z 13013KT 18/13 A3009 RMK A01 T01820133  RH  075%=      5-min Rain = 0
KONS 161310Z 13013KT 19/13 A3008 RMK A01 T01860133  RH  073%=      5-min Rain = 0
KONS 161315Z 13014KT 19/13 A3008 RMK A01 T01880132  RH  071%=      5-min Rain = 0
KONS 161320Z 13013KT 19/13 A3008 RMK A01 T01900133  RH  071%=      5-min Rain = 0
KONS 161325Z 13014KT 19/13 A3009 RMK A01 T01900133  RH  071%=      5-min Rain = 0
KONS 161330Z 13014KT 19/13 A3009 RMK A01 T01910133  RH  071%=      5-min Rain = 0
KONS 161335Z 14014KT 19/13 A3009 RMK A01 T01910133  RH  070%=      5-min Rain = 0
KONS 161340Z 13014KT 19/13 A3009 RMK A01 T01920133  RH  070%=      5-min Rain = 0
KONS 161345Z 14014KT 19/13 A3009 RMK A01 T01930134  RH  070%=      5-min Rain = 0
KONS 161350Z 14013G18KT 20/13 A301 RMK A01 T01960134  RH  069%=      5-min Rain = 0
KONS 161355Z 14013G18KT 20/13 A301 RMK A01 T01990134  RH  068%=      5-min Rain = 0
KONS 161400Z 14014KT 20/13 A301 RMK A01 T01960133  RH  068%=      5-min Rain = 0
KONS 161405Z 14013G18KT 20/13 A301 RMK A01 T01950134  RH  069%=      5-min Rain = 0
KONS 161410Z 14013G18KT 20/13 A301 RMK A01 T02000134  RH  067%=      5-min Rain = 0
KONS 161415Z 15013KT 20/13 A301 RMK A01 T01990133  RH  067%=      5-min Rain = 0
KONS 161420Z 15013KT 20/13 A301 RMK A01 T02020133  RH  066%=      5-min Rain = 0
KONS 161425Z 15014KT 20/13 A301 RMK A01 T02030133  RH  065%=      5-min Rain = 0
KONS 161430Z 15014KT 21/13 A301 RMK A01 T02050134  RH  065%=      5-min Rain = 0
KONS 161435Z 16014KT 21/14 A301 RMK A01 T02070135  RH  064%=      5-min Rain = 0
KONS 161440Z 15015KT 21/13 A301 RMK A01 T02110134  RH  063%=      5-min Rain = 0
KONS 161445Z 16015KT 21/13 A301 RMK A01 T02120134  RH  062%=      5-min Rain = 0
KONS 161450Z 16016G21KT 21/13 A301 RMK A01 T02120134  RH  062%=      5-min Rain = 0
KONS 161455Z 16015KT 21/13 A301 RMK A01 T02120132  RH  061%=      5-min Rain = 0
KONS 161500Z 16018G23KT 21/13 A301 RMK A01 T02110131  RH  061%=      5-min Rain = 0
KONS 161505Z 16017KT 21/13 A301 RMK A01 T02110133  RH  062%=      5-min Rain = 0
KONS 161510Z 16017KT 21/13 A301 RMK A01 T02130133  RH  061%=      5-min Rain = 0
KONS 161515Z 17016G21KT 22/14 A301 RMK A01 T02160135  RH  061%=      5-min Rain = 0
KONS 161520Z 17016KT 22/13 A301 RMK A01 T02160134  RH  061%=      5-min Rain = 0
KONS 161525Z 17017KT 22/14 A301 RMK A01 T02190136  RH  060%=      5-min Rain = 0
KONS 161530Z 18015G21KT 22/14 A301 RMK A01 T02200137  RH  061%=      5-min Rain = 0
KONS 161535Z 18018KT 22/14 A3009 RMK A01 T02210137  RH  060%=      5-min Rain = 0
KONS 161540Z 18017G22KT 22/14 A3009 RMK A01 T02190137  RH  061%=      5-min Rain = 0
KONS 161545Z 18017G23KT 22/14 A3009 RMK A01 T02200137  RH  060%=      5-min Rain = 0
KONS 161550Z 18018G23KT 22/14 A3009 RMK A01 T02240138  RH  059%=      5-min Rain = 0
KONS 161555Z 19017G22KT 22/14 A3009 RMK A01 T02230138  RH  060%=      5-min Rain = 0
KONS 161600Z 18018G23KT 23/14 A3009 RMK A01 T02270138  RH  058%=      5-min Rain = 0
KONS 161605Z 18019G25KT 23/14 A3009 RMK A01 T02290138  RH  058%=      5-min Rain = 0
KONS 161610Z 18018G23KT 23/14 A3009 RMK A01 T02310139  RH  057%=      5-min Rain = 0
KONS 161615Z 18018G25KT 23/14 A3009 RMK A01 T02330139  RH  057%=      5-min Rain = 0
KONS 161620Z 18017G22KT 23/14 A3009 RMK A01 T02340139  RH  056%=      5-min Rain = 0
KONS 161625Z 18016G23KT 24/14 A3009 RMK A01 T02360141  RH  056%=      5-min Rain = 0
KONS 161630Z 18017G22KT 24/14 A3009 RMK A01 T02380140  RH  055%=      5-min Rain = 0
KONS 161635Z 18014G19KT 24/14 A3009 RMK A01 T02390141  RH  055%=      5-min Rain = 0
KONS 161640Z 18014G21KT 25/14 A3009 RMK A01 T02460142  RH  053%=      5-min Rain = 0
KONS 161645Z 17016G23KT 24/14 A3009 RMK A01 T02430139  RH  053%=      5-min Rain = 0
KONS 161650Z 19015KT 24/14 A3009 RMK A01 T02440140  RH  053%=      5-min Rain = 0
KONS 161655Z 18015G24KT 25/14 A3009 RMK A01 T02480137  RH  051%=      5-min Rain = 0
KONS 161700Z 17016G22KT 25/13 A3009 RMK A01 T02500132  RH  049%=      5-min Rain = 0
KONS 161705Z 18014G20KT 25/13 A3009 RMK A01 T02540131  RH  047%=      5-min Rain = 0
KONS 161710Z 18015KT 26/13 A3008 RMK A01 T02550130  RH  047%=      5-min Rain = 0
KONS 161715Z 18015G22KT 26/13 A3008 RMK A01 T02570127  RH  045%=      5-min Rain = 0
KONS 161720Z 17016G22KT 26/12 A3008 RMK A01 T02580123  RH  044%=      5-min Rain = 0
KONS 161725Z 18015G22KT 26/12 A3008 RMK A01 T02610123  RH  043%=      5-min Rain = 0
KONS 161730Z 17015G25KT 27/12 A3008 RMK A01 T02650120  RH  041%=      5-min Rain = 0
KONS 161735Z 18015G20KT 26/12 A3007 RMK A01 T02630118  RH  041%=      5-min Rain = 0
KONS 161740Z 18014G20KT 27/12 A3007 RMK A01 T02660117  RH  040%=      5-min Rain = 0
KONS 161745Z 17017G33KT 26/12 A3006 RMK A01 T02640115  RH  040%=      5-min Rain = 0
KONS 161750Z 18015G22KT 27/12 A3006 RMK A01 T02660116  RH  040%=      5-min Rain = 0
KONS 161755Z 17015G20KT 27/11 A3005 RMK A01 T02690112  RH  038%=      5-min Rain = 0
KONS 161800Z 18018G25KT 27/11 A3005 RMK A01 T02700110  RH  038%=      5-min Rain = 0
KONS 161805Z 19017G22KT 27/11 A3005 RMK A01 T02680109  RH  038%=      5-min Rain = 0
KONS 161810Z 17014G21KT 27/11 A3005 RMK A01 T02710106  RH  036%=      5-min Rain = 0
KONS 161815Z 18016G21KT 28/11 A3006 RMK A01 T02760105  RH  035%=      5-min Rain = 0
KONS 161820Z 19013G18KT 28/10 A3006 RMK A01 T02760101  RH  034%=      5-min Rain = 0
KONS 161825Z 17012G18KT 28/10 A3005 RMK A01 T02760098  RH  033%=      5-min Rain = 0
KONS 161830Z 17013G19KT 28/10 A3005 RMK A01 T02780098  RH  033%=      5-min Rain = 0
KONS 161835Z 17014G24KT 28/10 A3005 RMK A01 T02810099  RH  033%=      5-min Rain = 0
KONS 161840Z 17014G20KT 28/10 A3005 RMK A01 T02810099  RH  033%=      5-min Rain = 0
KONS 161845Z 17014G19KT 28/10 A3005 RMK A01 T02800097  RH  032%=      5-min Rain = 0
KONS 161850Z 16013G19KT 28/10 A3005 RMK A01 T02820095  RH  032%=      5-min Rain = 0
KONS 161855Z 16016G22KT 29/09 A3004 RMK A01 T02850094  RH  031%=      5-min Rain = 0
KONS 161900Z 17015G21KT 29/10 A3004 RMK A01 T02870095  RH  031%=      5-min Rain = 0
KONS 161905Z 18013G19KT 29/10 A3004 RMK A01 T02870097  RH  031%=      5-min Rain = 0
KONS 161910Z 17017G23KT 29/10 A3004 RMK A01 T02880095  RH  030%=      5-min Rain = 0
KONS 161915Z 17014G19KT 28/10 A3004 RMK A01 T02810097  RH  032%=      5-min Rain = 0
KONS 161920Z 18013KT 28/10 A3004 RMK A01 T02840099  RH  032%=      5-min Rain = 0
KONS 161925Z 18015G22KT 29/10 A3004 RMK A01 T02930100  RH  031%=      5-min Rain = 0
KONS 161930Z 17014G20KT 29/10 A3004 RMK A01 T02880100  RH  032%=      5-min Rain = 0
KONS 161935Z 17016G22KT 29/10 A3003 RMK A01 T02910100  RH  031%=      5-min Rain = 0
KONS 161940Z 19013G19KT 29/10 A3003 RMK A01 T02850101  RH  032%=      5-min Rain = 0
KONS 161945Z 18014G22KT 28/10 A3003 RMK A01 T02840100  RH  032%=      5-min Rain = 0
KONS 161950Z 15017G26KT 29/10 A3003 RMK A01 T02860098  RH  031%=      5-min Rain = 0
KONS 161955Z 17014G23KT 29/10 A3003 RMK A01 T02850099  RH  032%=      5-min Rain = 0
KONS 162000Z 18015G23KT 29/10 A3002 RMK A01 T02860102  RH  032%=      5-min Rain = 0
KONS 162005Z 17017KT 29/11 A3002 RMK A01 T02890105  RH  032%=      5-min Rain = 0
KONS 162010Z 18014G22KT 30/10 A3002 RMK A01 T02960102  RH  031%=      5-min Rain = 0
KONS 162015Z 18014G19KT 30/10 A3002 RMK A01 T02980101  RH  030%=      5-min Rain = 0
KONS 162020Z 17017G25KT 30/10 A3001 RMK A01 T02990103  RH  030%=      5-min Rain = 0
KONS 162025Z 18014G21KT 30/10 A3001 RMK A01 T03000103  RH  030%=      5-min Rain = 0
KONS 162030Z 18015G23KT 30/10 A3001 RMK A01 T02970099  RH  030%=      5-min Rain = 0
KONS 162035Z 15016KT 30/10 A3001 RMK A01 T02980097  RH  029%=      5-min Rain = 0
KONS 162040Z 16014G25KT 30/10 A3001 RMK A01 T02990098  RH  029%=      5-min Rain = 0
KONS 162045Z 18012G17KT 30/10 A3001 RMK A01 T02990098  RH  029%=      5-min Rain = 0
KONS 162050Z 18013G18KT 30/09 A30 RMK A01 T03030093  RH  028%=      5-min Rain = 0
KONS 162055Z 17015G22KT 30/09 A30 RMK A01 T03040092  RH  027%=      5-min Rain = 0
KONS 162100Z 17012G21KT 30/09 A30 RMK A01 T03020089  RH  027%=      5-min Rain = 0
KONS 162105Z 17012G18KT 30/09 A30 RMK A01 T03000088  RH  027%=      5-min Rain = 0
KONS 162110Z 17013KT 31/09 A30 RMK A01 T03050088  RH  026%=      5-min Rain = 0
KONS 162115Z 16011G20KT 31/09 A2999 RMK A01 T03050086  RH  026%=      5-min Rain = 0
KONS 162120Z 17016G21KT 30/09 A2999 RMK A01 T03040086  RH  026%=      5-min Rain = 0
KONS 162125Z 18011G19KT 31/08 A2999 RMK A01 T03050083  RH  025%=      5-min Rain = 0
KONS 162130Z 18011KT 31/09 A2999 RMK A01 T03060086  RH  026%=      5-min Rain = 0
KONS 162135Z 16012G22KT 31/09 A2998 RMK A01 T03080085  RH  025%=      5-min Rain = 0
KONS 162140Z 17015G22KT 31/08 A2998 RMK A01 T03100080  RH  024%=      5-min Rain = 0
KONS 162145Z 16015G22KT 31/08 A2998 RMK A01 T03070080  RH  025%=      5-min Rain = 0
KONS 162150Z 17013G18KT 31/08 A2998 RMK A01 T03090079  RH  024%=      5-min Rain = 0
KONS 162155Z 17014KT 31/08 A2998 RMK A01 T03110079  RH  024%=      5-min Rain = 0
KONS 162200Z 16013G19KT 31/08 A2997 RMK A01 T03090077  RH  024%=      5-min Rain = 0
KONS 162205Z 16010G17KT 31/08 A2997 RMK A01 T03090077  RH  024%=      5-min Rain = 0
KONS 162210Z 16011KT 31/08 A2997 RMK A01 T03100075  RH  024%=      5-min Rain = 0
KONS 162215Z 16009G17KT 31/08 A2997 RMK A01 T03100075  RH  023%=      5-min Rain = 0
KONS 162220Z 17011G16KT 31/08 A2997 RMK A01 T03090075  RH  024%=      5-min Rain = 0
KONS 162225Z 15009G18KT 31/07 A2997 RMK A01 T03110073  RH  023%=      5-min Rain = 0
KONS 162230Z 15010G16KT 31/07 A2997 RMK A01 T03100072  RH  023%=      5-min Rain = 0
KONS 162235Z 16011KT 31/07 A2996 RMK A01 T03090072  RH  023%=      5-min Rain = 0
KONS 162240Z 15012G18KT 31/07 A2996 RMK A01 T03090071  RH  023%=      5-min Rain = 0
KONS 162245Z 13009KT 31/07 A2996 RMK A01 T03100070  RH  023%=      5-min Rain = 0
KONS 162250Z 13015KT 31/08 A2996 RMK A01 T03110075  RH  023%=      5-min Rain = 0
KONS 162255Z 13014G19KT 31/08 A2996 RMK A01 T03090081  RH  025%=      5-min Rain = 0
KONS 162300Z 13015G21KT 30/08 A2996 RMK A01 T02980080  RH  026%=      5-min Rain = 0
KONS 162305Z 13013G20KT 29/08 A2996 RMK A01 T02920083  RH  027%=      5-min Rain = 0
KONS 162310Z 12012KT 29/09 A2996 RMK A01 T02900085  RH  028%=      5-min Rain = 0
KONS 162315Z 12015KT 30/09 A2995 RMK A01 T02980087  RH  027%=      5-min Rain = 0
KONS 162320Z 13015G21KT 30/09 A2995 RMK A01 T03000087  RH  027%=      5-min Rain = 0
KONS 162325Z 13014KT 30/09 A2995 RMK A01 T03010087  RH  027%=      5-min Rain = 0
KONS 162330Z 14016G22KT 30/09 A2995 RMK A01 T03020089  RH  027%=      5-min Rain = 0
KONS 162335Z 14014G20KT 30/09 A2995 RMK A01 T03030090  RH  027%=      5-min Rain = 0
KONS 162340Z 13012KT 30/09 A2995 RMK A01 T03020090  RH  027%=      5-min Rain = 0
KONS 162345Z 13012G17KT 30/09 A2995 RMK A01 T03010090  RH  027%=      5-min Rain = 0
KONS 162350Z 12016KT 30/09 A2994 RMK A01 T03000094  RH  028%=      5-min Rain = 0
KONS 162355Z 13016G22KT 30/10 A2994 RMK A01 T02980095  RH  029%=      5-min Rain = 0
KONS 170000Z 13015G23KT 30/09 A2994 RMK A01 T02970094  RH  029%=      5-min Rain = 0
KONS 170005Z 13015G21KT 30/09 A2994 RMK A01 T02970092  RH  028%=      5-min Rain = 0
KONS 170010Z 13015G21KT 30/09 A2994 RMK A01 T02970092  RH  028%=      5-min Rain = 0
KONS 170015Z 12017G22KT 29/10 A2994 RMK A01 T02940099  RH  030%=      5-min Rain = 0
KONS 170020Z 12017KT 29/10 A2994 RMK A01 T02910097  RH  030%=      5-min Rain = 0
KONS 170025Z 12014G19KT 29/10 A2994 RMK A01 T02910098  RH  031%=      5-min Rain = 0
KONS 170030Z 12014KT 29/10 A2994 RMK A01 T02890099  RH  031%=      5-min Rain = 0
KONS 170035Z 12014G20KT 29/10 A2993 RMK A01 T02870100  RH  032%=      5-min Rain = 0
KONS 170040Z 11017G22KT 29/10 A2993 RMK A01 T02860100  RH  032%=      5-min Rain = 0
KONS 170045Z 12014G19KT 29/10 A2993 RMK A01 T02850100  RH  032%=      5-min Rain = 0
KONS 170050Z 12013G19KT 28/10 A2993 RMK A01 T02830100  RH  033%=      5-min Rain = 0
KONS 170055Z 12013G18KT 28/10 A2993 RMK A01 T02820100  RH  033%=      5-min Rain = 0
KONS 170100Z 11015KT 28/10 A2993 RMK A01 T02800101  RH  033%=      5-min Rain = 0
KONS 170105Z 11014KT 28/10 A2993 RMK A01 T02790102  RH  034%=      5-min Rain = 0
KONS 170110Z 11014KT 28/10 A2993 RMK A01 T02760103  RH  035%=      5-min Rain = 0
KONS 170115Z 11012KT 27/11 A2994 RMK A01 T02730105  RH  036%=      5-min Rain = 0
KONS 170120Z 11012KT 27/11 A2994 RMK A01 T02710105  RH  036%=      5-min Rain = 0
KONS 170125Z 12012KT 27/10 A2994 RMK A01 T02700104  RH  036%=      5-min Rain = 0
KONS 170130Z 12012KT 27/10 A2994 RMK A01 T02690104  RH  036%=      5-min Rain = 0
KONS 170135Z 12013KT 27/11 A2994 RMK A01 T02670105  RH  037%=      5-min Rain = 0
KONS 170140Z 12013KT 27/11 A2994 RMK A01 T02650105  RH  037%=      5-min Rain = 0
KONS 170145Z 12012KT 26/11 A2994 RMK A01 T02620105  RH  038%=      5-min Rain = 0
KONS 170150Z 12013KT 26/11 A2995 RMK A01 T02610105  RH  038%=      5-min Rain = 0
KONS 170155Z 11012KT 26/11 A2995 RMK A01 T02590106  RH  039%=      5-min Rain = 0
KONS 170200Z 12014G20KT 26/11 A2995 RMK A01 T02570106  RH  039%=      5-min Rain = 0
KONS 170205Z 12015KT 26/11 A2995 RMK A01 T02570106  RH  039%=      5-min Rain = 0
KONS 170210Z 12013KT 26/11 A2996 RMK A01 T02550106  RH  040%=      5-min Rain = 0
KONS 170215Z 12013KT 25/11 A2996 RMK A01 T02510108  RH  041%=      5-min Rain = 0
KONS 170220Z 12012KT 25/11 A2996 RMK A01 T02490108  RH  042%=      5-min Rain = 0
KONS 170225Z 12012KT 25/11 A2996 RMK A01 T02480108  RH  042%=      5-min Rain = 0
KONS 170230Z 12011KT 25/11 A2996 RMK A01 T02450108  RH  043%=      5-min Rain = 0
KONS 170235Z 12012KT 24/11 A2997 RMK A01 T02440106  RH  043%=      5-min Rain = 0
KONS 170240Z 12013G18KT 24/11 A2997 RMK A01 T02430105  RH  042%=      5-min Rain = 0
KONS 170245Z 12013KT 24/10 A2997 RMK A01 T02420104  RH  042%=      5-min Rain = 0
KONS 170250Z 12012KT 24/10 A2997 RMK A01 T02400103  RH  043%=      5-min Rain = 0
KONS 170255Z 12012KT 24/10 A2997 RMK A01 T02390102  RH  043%=      5-min Rain = 0
KONS 170300Z 12012G17KT 24/10 A2997 RMK A01 T02390102  RH  043%=      5-min Rain = 0
KONS 170305Z 12012KT 24/10 A2997 RMK A01 T02370101  RH  043%=      5-min Rain = 0
KONS 170310Z 12011G16KT 24/10 A2997 RMK A01 T02350102  RH  043%=      5-min Rain = 0
KONS 170315Z 13011KT 23/10 A2997 RMK A01 T02330102  RH  044%=      5-min Rain = 0
KONS 170320Z 13012G17KT 23/10 A2998 RMK A01 T02320101  RH  044%=      5-min Rain = 0
KONS 170325Z 13012KT 23/10 A2998 RMK A01 T02310100  RH  044%=      5-min Rain = 0
KONS 170330Z 12012KT 23/10 A2998 RMK A01 T02310100  RH  044%=      5-min Rain = 0
KONS 170335Z 12012G17KT 23/10 A2998 RMK A01 T02300100  RH  044%=      5-min Rain = 0
KONS 170340Z 12014G20KT 23/10 A2999 RMK A01 T02280102  RH  046%=      5-min Rain = 0
KONS 170345Z 12014KT 23/11 A2999 RMK A01 T02270106  RH  047%=      5-min Rain = 0
KONS 170350Z 12014KT 23/11 A2999 RMK A01 T02250109  RH  049%=      5-min Rain = 0
KONS 170355Z 12014G19KT 22/11 A2999 RMK A01 T02230112  RH  050%=      5-min Rain = 0
KONS 170400Z 12014KT 22/12 A2999 RMK A01 T02220115  RH  052%=      5-min Rain = 0
KONS 170405Z 12014KT 22/12 A2999 RMK A01 T02210117  RH  053%=      5-min Rain = 0
KONS 170410Z 12014G20KT 22/12 A2999 RMK A01 T02200119  RH  054%=      5-min Rain = 0
KONS 170415Z 12013G18KT 22/12 A2999 RMK A01 T02180119  RH  054%=      5-min Rain = 0
KONS 170420Z 12013G18KT 22/12 A2999 RMK A01 T02170120  RH  055%=      5-min Rain = 0
KONS 170425Z 12012G17KT 22/12 A2999 RMK A01 T02160120  RH  055%=      5-min Rain = 0
KONS 170430Z 12012G17KT 22/12 A2999 RMK A01 T02150119  RH  056%=      5-min Rain = 0
KONS 170435Z 12012G17KT 21/12 A30 RMK A01 T02130119  RH  056%=      5-min Rain = 0
KONS 170440Z 12011KT 21/12 A30 RMK A01 T02110119  RH  057%=      5-min Rain = 0
KONS 170445Z 12011KT 21/12 A2999 RMK A01 T02100119  RH  057%=      5-min Rain = 0
KONS 170450Z 12011KT 21/12 A2999 RMK A01 T02090118  RH  057%=      5-min Rain = 0
KONS 170455Z 12011KT 21/12 A2999 RMK A01 T02070118  RH  058%=      5-min Rain = 0

Page generated in 0.0395 seconds.